Enter the Airport ICAO Code

Search by Airport or City

Current Weather

LGTS | Thessaloniki Airport "Macedonia"

Thessaloniki, Greece

Last Update 30 Minutes Ago

Sky with Few Clouds

Temperature of 29 ºC

Moderate Winds from NorthWest with Gusts

Temperature

29 ºC

Dew Point Temperature

13 ºC

Relative Humidity

37.59 %

Wind Direction

NorthWest (330º, Without Significant Variations)

Wind Velocity

26 km/h (14 kt)

Gusts

44 km/h (24 kt)

Visibility

Greater than 10 Kilometers

Sea Level Pressure

1013 hPa (Hectopascals)

Layers of Clouds

5% to 30% of Sky Covered from 914 mts (3000 ft) Above Ground Level.

METAR LGTS 131020Z 33014G24KT 9999 FEW030 29/13 Q1013 NOSIG

Weather Forecast

LGTS | Thessaloniki Airport "Macedonia"

Thessaloniki, Greece

Forecast valid for the next 19 Hours

From now on it is expected:

Sky with Few Clouds

Moderate Winds from North

In 9 to 11 hours it is expected the begining of:

Partly Cloudy Sky

Moderate Winds from SouthEast

Maximum Temperature

No Data

Minimum Temperature

No Data

TAF LGTS 130500Z 1306/1406 34015KT 9999 FEW030 TEMPO 1306/1309 34020G30KT BECMG 1320/1322 12010KT SCT030